createdAt,value
2022-10-20T00:00:11.222Z,7.1
2022-10-20T00:05:10.763Z,7.1
2022-10-20T00:10:11.488Z,7.1
2022-10-20T00:15:11.248Z,7.1
2022-10-20T00:20:11.034Z,7.1
2022-10-20T00:25:10.831Z,7.1
2022-10-20T00:30:11.544Z,7.1
2022-10-20T00:35:11.251Z,7.1
2022-10-20T00:40:10.957Z,7.1
2022-10-20T00:45:10.679Z,7.1
2022-10-20T00:50:11.386Z,7.1
2022-10-20T00:55:11.116Z,7.1
2022-10-20T01:00:10.837Z,7.0
2022-10-20T01:05:11.624Z,7.0
2022-10-20T01:10:11.348Z,7.0
2022-10-20T01:15:11.133Z,7.0
2022-10-20T01:20:10.912Z,7.1
2022-10-20T01:25:11.628Z,7.1
2022-10-20T01:30:11.333Z,7.0
2022-10-20T01:35:11.057Z,7.0
2022-10-20T01:40:10.786Z,7.0
2022-10-20T01:45:11.522Z,7.0
2022-10-20T01:50:11.276Z,7.0
2022-10-20T01:55:10.993Z,7.0
2022-10-20T02:00:10.710Z,7.0
2022-10-20T02:05:11.454Z,7.0
2022-10-20T02:10:11.190Z,6.9
2022-10-20T02:15:10.926Z,6.9
2022-10-20T02:20:11.665Z,6.9
2022-10-20T02:25:11.348Z,6.9
2022-10-20T02:30:11.047Z,6.6
2022-10-20T02:35:10.762Z,6.6
2022-10-20T02:40:11.473Z,6.9
2022-10-20T02:45:11.173Z,6.9
2022-10-20T02:50:10.902Z,6.6
2022-10-20T02:55:11.665Z,6.6
2022-10-20T03:00:11.487Z,6.9
2022-10-20T03:05:11.214Z,6.9
2022-10-20T03:10:10.926Z,6.6
2022-10-20T03:15:11.679Z,6.6
2022-10-20T03:20:11.457Z,6.9
2022-10-20T03:25:11.203Z,6.9
2022-10-20T03:30:10.893Z,6.9
2022-10-20T03:35:11.591Z,6.9
2022-10-20T03:40:11.311Z,6.9
2022-10-20T03:45:13.750Z,6.9
2022-10-20T03:50:11.044Z,6.9
2022-10-20T03:55:10.753Z,6.9
2022-10-20T04:00:11.466Z,6.9
2022-10-20T04:05:05.869Z,6.9
2022-10-20T04:10:06.032Z,6.9
2022-10-20T04:15:04.970Z,6.9
2022-10-20T04:20:04.850Z,6.9
2022-10-20T04:25:05.813Z,6.9
2022-10-20T04:30:05.789Z,7.0
2022-10-20T04:35:07.339Z,7.0
2022-10-20T04:40:07.088Z,7.0
2022-10-20T04:45:05.145Z,7.0
2022-10-20T04:50:05.152Z,7.0
2022-10-20T04:55:05.470Z,7.0
2022-10-20T05:00:05.721Z,7.1
2022-10-20T05:05:06.359Z,7.1
2022-10-20T05:10:06.610Z,7.1
2022-10-20T05:15:06.167Z,7.1
2022-10-20T05:20:05.472Z,7.4
2022-10-20T05:25:35.523Z,7.4
2022-10-20T05:30:06.160Z,7.4
2022-10-20T05:35:05.231Z,7.4
2022-10-20T05:40:05.468Z,7.5
2022-10-20T05:45:05.829Z,7.5
2022-10-20T05:50:06.640Z,7.6
2022-10-20T05:55:05.695Z,7.6
2022-10-20T06:00:05.755Z,7.5
2022-10-20T06:05:05.751Z,7.5
2022-10-20T06:10:05.579Z,7.6
2022-10-20T06:15:05.845Z,7.6
2022-10-20T06:20:06.504Z,7.5
2022-10-20T06:25:06.097Z,7.5
2022-10-20T06:30:05.092Z,7.6
2022-10-20T06:35:05.706Z,7.6
2022-10-20T06:40:05.549Z,7.9
2022-10-20T06:45:07.463Z,7.9
2022-10-20T06:50:05.791Z,8.0
2022-10-20T06:55:07.762Z,8.0
2022-10-20T07:00:06.311Z,8.3
2022-10-20T07:05:06.976Z,8.3
2022-10-20T07:10:05.148Z,8.6
2022-10-20T07:15:05.425Z,8.6
2022-10-20T07:20:05.744Z,8.8
2022-10-20T07:25:05.753Z,8.8
2022-10-20T07:30:05.084Z,9.0
2022-10-20T07:35:05.133Z,9.0
2022-10-20T07:40:05.211Z,9.1
2022-10-20T07:45:05.303Z,9.1
2022-10-20T07:50:05.566Z,9.5
2022-10-20T07:55:17.703Z,9.5
2022-10-20T08:00:05.126Z,9.8
2022-10-20T08:05:05.126Z,9.8
2022-10-20T08:10:06.146Z,10.0
2022-10-20T08:15:05.494Z,10.0
2022-10-20T08:20:24.903Z,10.1
2022-10-20T08:25:05.137Z,10.1
2022-10-20T08:30:22.967Z,10.5
2022-10-20T08:35:05.587Z,10.5
2022-10-20T08:40:05.645Z,10.8
2022-10-20T08:45:06.977Z,10.8
2022-10-20T08:50:05.234Z,11.1
2022-10-20T08:55:05.450Z,11.1
2022-10-20T09:00:08.874Z,11.6
2022-10-20T09:05:05.719Z,11.6
2022-10-20T09:10:06.206Z,12.0
2022-10-20T09:15:05.806Z,12.0
2022-10-20T09:20:06.172Z,12.1
2022-10-20T09:25:05.125Z,12.1
2022-10-20T09:30:05.452Z,13.3
2022-10-20T09:35:05.644Z,13.3
2022-10-20T09:40:05.715Z,13.1
2022-10-20T09:45:06.166Z,13.1
2022-10-20T09:50:05.776Z,12.8
2022-10-20T09:55:05.860Z,12.8
2022-10-20T10:00:19.156Z,13.5
2022-10-20T10:05:05.409Z,13.5
2022-10-20T10:10:08.266Z,13.6
2022-10-20T10:15:06.122Z,13.6
2022-10-20T10:20:05.010Z,13.6
2022-10-20T10:25:05.301Z,13.6
2022-10-20T10:30:05.174Z,13.6
2022-10-20T10:35:05.721Z,13.6
2022-10-20T10:40:05.965Z,14.3
2022-10-20T10:45:05.432Z,14.3
2022-10-20T10:50:05.732Z,14.3
2022-10-20T10:55:05.657Z,14.6
2022-10-20T11:00:05.753Z,14.6
2022-10-20T11:05:05.863Z,14.6
2022-10-20T11:10:06.303Z,14.6
2022-10-20T11:15:05.404Z,14.3
2022-10-20T11:20:05.532Z,14.5
2022-10-20T11:25:05.527Z,14.5
2022-10-20T11:30:06.130Z,14.3
2022-10-20T11:35:05.109Z,14.3
2022-10-20T11:40:08.471Z,14.3
2022-10-20T11:45:06.802Z,14.1
2022-10-20T11:50:05.941Z,14.0
2022-10-20T11:55:06.315Z,14.1
2022-10-20T12:00:05.511Z,14.1
2022-10-20T12:05:06.216Z,13.8
2022-10-20T12:10:05.721Z,12.8
2022-10-20T12:15:06.895Z,13.1
2022-10-20T12:20:06.153Z,12.6
2022-10-20T12:25:05.459Z,12.6
2022-10-20T12:30:05.598Z,12.5
2022-10-20T12:35:06.298Z,12.3
2022-10-20T12:40:05.241Z,12.3
2022-10-20T12:45:05.357Z,12.1
2022-10-20T12:50:05.664Z,12.3
2022-10-20T12:55:06.021Z,12.3
2022-10-20T13:00:05.119Z,12.5
2022-10-20T13:05:05.293Z,12.5
2022-10-20T13:10:05.394Z,12.8
2022-10-20T13:15:05.784Z,12.6
2022-10-20T13:20:05.895Z,12.8
2022-10-20T13:25:06.086Z,13.1
2022-10-20T13:30:05.422Z,13.1
2022-10-20T13:35:05.367Z,13.1
2022-10-20T13:40:05.430Z,13.1
2022-10-20T13:45:05.427Z,13.5
2022-10-20T13:50:05.741Z,13.5
2022-10-20T13:55:05.105Z,13.6
2022-10-20T14:00:05.234Z,13.6
2022-10-20T14:05:05.699Z,13.5
2022-10-20T14:10:05.847Z,13.5
2022-10-20T14:15:05.828Z,14.0
2022-10-20T14:20:07.354Z,14.0
2022-10-20T14:25:05.388Z,15.0
2022-10-20T14:30:05.604Z,14.5
2022-10-20T14:35:05.695Z,14.5
2022-10-20T14:40:05.638Z,14.6
2022-10-20T14:45:06.440Z,14.6
2022-10-20T14:50:05.416Z,13.8
2022-10-20T14:55:06.023Z,13.8
2022-10-20T15:00:06.427Z,15.0
2022-10-20T15:05:05.511Z,15.0
2022-10-20T15:10:06.105Z,15.1
2022-10-20T15:15:05.334Z,15.1
2022-10-20T15:20:05.649Z,15.6
2022-10-20T15:25:06.897Z,15.6
2022-10-20T15:30:05.802Z,16.6
2022-10-20T15:35:06.224Z,16.6
2022-10-20T15:40:06.013Z,16.2
2022-10-20T15:45:05.186Z,16.2
2022-10-20T15:50:05.248Z,15.0
2022-10-20T15:55:05.280Z,15.0
2022-10-20T16:00:05.882Z,14.5
2022-10-20T16:05:05.847Z,14.5
2022-10-20T16:10:05.689Z,14.3
2022-10-20T16:15:05.498Z,14.3
2022-10-20T16:20:05.369Z,14.3
2022-10-20T16:25:05.149Z,14.3
2022-10-20T16:30:04.969Z,14.0
2022-10-20T16:35:04.844Z,14.0
2022-10-20T16:40:05.757Z,14.0
2022-10-20T16:45:05.591Z,14.0
2022-10-20T16:50:05.440Z,14.0
2022-10-20T16:55:05.268Z,13.8
2022-10-20T17:00:05.138Z,13.8
2022-10-20T17:05:08.234Z,13.8
2022-10-20T17:10:05.470Z,13.8
2022-10-20T17:15:05.360Z,13.8
2022-10-20T17:20:05.372Z,13.8
2022-10-20T17:25:05.324Z,13.8
2022-10-20T17:30:05.183Z,14.0
2022-10-20T17:35:05.075Z,14.0
2022-10-20T17:40:05.133Z,13.6
2022-10-20T17:45:05.113Z,13.6
2022-10-20T17:50:04.950Z,13.6
2022-10-20T17:55:04.830Z,13.6
2022-10-20T18:00:09.734Z,13.6
2022-10-20T18:05:04.876Z,13.6
2022-10-20T18:10:05.671Z,13.6
2022-10-20T18:15:05.457Z,13.6
2022-10-20T18:20:05.303Z,13.6
2022-10-20T18:25:05.152Z,13.6
2022-10-20T18:30:04.957Z,13.5
2022-10-20T18:35:04.801Z,13.5
2022-10-20T18:40:05.661Z,13.5
2022-10-20T18:45:05.472Z,13.5
2022-10-20T18:50:05.433Z,13.5
2022-10-20T18:55:05.294Z,13.5
2022-10-20T19:00:05.053Z,13.6
2022-10-20T19:05:04.922Z,13.6
2022-10-20T19:10:05.759Z,13.6
2022-10-20T19:15:05.751Z,13.6
2022-10-20T19:20:05.594Z,13.6
2022-10-20T19:25:05.325Z,13.6
2022-10-20T19:30:05.182Z,13.6
2022-10-20T19:35:05.071Z,13.6
2022-10-20T19:40:05.082Z,13.6
2022-10-20T19:45:05.044Z,13.6
2022-10-20T19:50:05.071Z,13.6
2022-10-20T19:55:05.014Z,13.6
2022-10-20T20:00:05.043Z,13.6
2022-10-20T20:05:05.000Z,13.6
2022-10-20T20:10:04.915Z,13.6
2022-10-20T20:15:05.771Z,13.6
2022-10-20T20:20:05.700Z,14.0
2022-10-20T20:25:05.560Z,14.0
2022-10-20T20:30:05.377Z,14.1
2022-10-20T20:35:24.984Z,14.1
2022-10-20T20:40:10.700Z,14.3
2022-10-20T20:45:11.416Z,14.3
2022-10-20T20:50:11.129Z,14.3
2022-10-20T20:55:10.873Z,14.3
2022-10-20T21:00:11.601Z,14.1
2022-10-20T21:05:11.331Z,14.1
2022-10-20T21:10:11.059Z,13.8
2022-10-20T21:15:10.809Z,13.8
2022-10-20T21:20:11.558Z,13.6
2022-10-20T21:25:11.287Z,13.6
2022-10-20T21:30:10.984Z,13.5
2022-10-20T21:35:10.718Z,13.5
2022-10-20T21:40:11.445Z,13.5
2022-10-20T21:45:14.297Z,13.5
2022-10-20T21:50:11.572Z,13.5
2022-10-20T21:55:11.287Z,13.5
2022-10-20T22:00:11.045Z,13.3
2022-10-20T22:05:10.783Z,13.3
2022-10-20T22:10:11.506Z,13.5
2022-10-20T22:15:11.201Z,13.5
2022-10-20T22:20:10.917Z,13.5
2022-10-20T22:25:11.638Z,13.5
2022-10-20T22:30:11.330Z,13.5
2022-10-20T22:35:11.058Z,13.5
2022-10-20T22:40:10.773Z,13.5
2022-10-20T22:45:11.479Z,13.5
2022-10-20T22:50:11.226Z,13.6
2022-10-20T22:55:10.926Z,13.6
2022-10-20T23:01:02.757Z,13.6
2022-10-20T23:05:11.562Z,13.6
2022-10-20T23:10:10.976Z,13.8
2022-10-20T23:15:10.680Z,14.0
2022-10-20T23:20:11.476Z,14.1
2022-10-20T23:25:11.265Z,14.1
2022-10-20T23:30:10.997Z,14.3
2022-10-20T23:35:10.736Z,14.1
2022-10-20T23:40:11.504Z,14.1
2022-10-20T23:45:11.225Z,14.3
2022-10-20T23:50:10.970Z,14.3
2022-10-20T23:55:13.227Z,14.3
